Time;durP1;ratioP1;P1;durP2;ratioP2;P2;SDS_P1;SDS_P2;PMS_P1;PMS_P2;Temp;Humidity;BMP_temperature;BMP_pressure;BME280_temperature;BME280_humidity;BME280_pressure;Samples;Min_cycle;Max_cycle;Signal;HPM_P1;HPM_P2
2021/03/16 00:00:17;;;;;;;0.10;0.10;;;;;;;;;;5072832;28;20214;-68
2021/03/16 00:02:43;;;;;;;0.20;0.20;;;;;;;;;;5083191;28;20165;-68
2021/03/16 00:05:09;;;;;;;0.10;0.10;;;;;;;;;;5070684;28;20157;-68
2021/03/16 00:07:35;;;;;;;0.10;0.10;;;;;;;;;;5052890;28;20352;-68
2021/03/16 00:10:01;;;;;;;0.10;0.10;;;;;;;;;;5051784;28;20192;-68
2021/03/16 00:12:28;;;;;;;0.10;0.10;;;;;;;;;;5070700;28;20184;-68
2021/03/16 00:14:54;;;;;;;0.10;0.10;;;;;;;;;;5052722;28;20168;-69
2021/03/16 00:17:21;;;;;;;0.10;0.10;;;;;;;;;;5070693;28;20169;-68
2021/03/16 00:19:47;;;;;;;0.55;0.55;;;;;;;;;;5070496;28;20666;-68
2021/03/16 00:22:13;;;;;;;0.10;0.10;;;;;;;;;;5052765;28;20187;-69
2021/03/16 00:24:40;;;;;;;0.10;0.10;;;;;;;;;;5070414;28;20524;-68
2021/03/16 00:27:06;;;;;;;0.10;0.10;;;;;;;;;;5052545;28;20267;-69
2021/03/16 00:29:32;;;;;;;0.10;0.10;;;;;;;;;;5052401;28;20193;-68
2021/03/16 00:31:58;;;;;;;0.10;0.10;;;;;;;;;;5070328;28;20157;-68
2021/03/16 00:34:25;;;;;;;0.10;0.10;;;;;;;;;;5070242;28;20171;-68
2021/03/16 00:36:51;;;;;;;0.10;0.10;;;;;;;;;;5070232;28;20164;-68
2021/03/16 00:39:17;;;;;;;0.10;0.10;;;;;;;;;;5052097;28;20204;-68
2021/03/16 00:41:43;;;;;;;0.10;0.10;;;;;;;;;;5070129;28;20168;-68
2021/03/16 00:44:10;;;;;;;0.10;0.10;;;;;;;;;;5052247;28;20182;-67
2021/03/16 00:46:36;;;;;;;0.10;0.10;;;;;;;;;;5051829;28;20255;-68
2021/03/16 00:49:03;;;;;;;0.10;0.10;;;;;;;;;;5069942;28;20188;-67
2021/03/16 00:51:30;;;;;;;0.10;0.10;;;;;;;;;;5070030;28;20248;-68
2021/03/16 00:53:56;;;;;;;0.10;0.10;;;;;;;;;;5052030;28;20183;-68
2021/03/16 00:56:22;;;;;;;0.10;0.10;;;;;;;;;;5069805;28;20180;-67
2021/03/16 00:58:49;;;;;;;0.65;0.50;;;;;;;;;;5089118;28;20200;-68
2021/03/16 01:01:15;;;;;;;0.10;0.10;;;;;;;;;;5089788;28;20159;-68
2021/03/16 01:03:41;;;;;;;0.55;0.55;;;;;;;;;;5056751;28;20172;-68
2021/03/16 01:06:07;;;;;;;0.30;0.30;;;;;;;;;;5051841;28;20249;-66
2021/03/16 01:08:34;;;;;;;0.10;0.10;;;;;;;;;;5051650;28;20203;-67
2021/03/16 01:11:00;;;;;;;0.28;0.28;;;;;;;;;;5051737;28;20167;-68
2021/03/16 01:13:26;;;;;;;0.43;0.43;;;;;;;;;;5051618;28;20168;-68
2021/03/16 01:15:53;;;;;;;0.15;0.15;;;;;;;;;;5069550;28;20621;-68
2021/03/16 01:18:19;;;;;;;0.10;0.10;;;;;;;;;;5069412;28;20157;-69
2021/03/16 01:20:45;;;;;;;0.10;0.10;;;;;;;;;;5069100;28;20157;-68
2021/03/16 01:23:11;;;;;;;0.10;0.10;;;;;;;;;;5051682;28;20191;-68
2021/03/16 01:25:37;;;;;;;0.10;0.10;;;;;;;;;;5069357;28;20160;-68
2021/03/16 01:28:04;;;;;;;0.10;0.10;;;;;;;;;;5051384;28;20197;-68
2021/03/16 01:30:33;;;;;;;0.03;0.03;;;;;;;;;;5069287;28;20238;-68
2021/03/16 01:32:59;;;;;;;0.38;0.38;;;;;;;;;;5069368;28;20160;-68
2021/03/16 01:35:26;;;;;;;0.10;0.10;;;;;;;;;;5069282;28;20522;-68
2021/03/16 01:37:55;;;;;;;0.13;0.13;;;;;;;;;;5069269;28;20165;-68
2021/03/16 01:40:33;;;;;;;0.10;0.10;;;;;;;;;;5069090;28;20193;-68
2021/03/16 01:43:18;;;;;;;0.10;0.10;;;;;;;;;;5069339;28;20232;-69
2021/03/16 01:45:46;;;;;;;0.10;0.10;;;;;;;;;;5051261;28;20251;-68
2021/03/16 01:48:13;;;;;;;0.15;0.15;;;;;;;;;;5069112;28;20251;-68
2021/03/16 01:50:40;;;;;;;0.10;0.10;;;;;;;;;;5069012;28;20222;-69
2021/03/16 01:53:07;;;;;;;0.10;0.10;;;;;;;;;;5069121;28;20161;-68
2021/03/16 01:55:34;;;;;;;0.10;0.10;;;;;;;;;;5069153;28;20240;-68
2021/03/16 01:58:00;;;;;;;0.10;0.10;;;;;;;;;;5076281;28;20566;-68
2021/03/16 02:00:27;;;;;;;0.10;0.10;;;;;;;;;;5068929;28;20196;-68
2021/03/16 02:02:54;;;;;;;0.10;0.10;;;;;;;;;;5068981;28;20195;-66
2021/03/16 02:05:20;;;;;;;0.10;0.10;;;;;;;;;;5068917;28;20157;-66
2021/03/16 02:08:01;;;;;;;0.10;0.10;;;;;;;;;;5068992;28;20187;-66
2021/03/16 02:10:29;;;;;;;0.10;0.10;;;;;;;;;;5068820;28;20203;-67
2021/03/16 02:13:01;;;;;;;0.10;0.10;;;;;;;;;;5068966;28;20190;-68
2021/03/16 02:15:30;;;;;;;0.13;0.13;;;;;;;;;;5050877;28;20160;-68
2021/03/16 02:17:58;;;;;;;0.10;0.10;;;;;;;;;;5068813;28;20161;-68
2021/03/16 02:20:25;;;;;;;0.20;0.20;;;;;;;;;;5050927;28;20292;-67
2021/03/16 02:22:52;;;;;;;0.10;0.10;;;;;;;;;;5068895;28;20163;-67
2021/03/16 02:25:21;;;;;;;0.10;0.10;;;;;;;;;;5068820;28;20172;-68
2021/03/16 02:27:56;;;;;;;0.10;0.10;;;;;;;;;;5050765;28;20271;-69
2021/03/16 02:30:23;;;;;;;0.55;0.55;;;;;;;;;;5050894;28;20613;-68
2021/03/16 02:32:50;;;;;;;0.10;0.10;;;;;;;;;;5051032;28;20169;-68
2021/03/16 02:35:18;;;;;;;0.10;0.10;;;;;;;;;;5054631;28;20165;-68
2021/03/16 02:37:45;;;;;;;0.10;0.10;;;;;;;;;;5072608;28;20152;-67
2021/03/16 02:40:12;;;;;;;0.10;0.10;;;;;;;;;;5055949;28;20228;-65
2021/03/16 02:42:39;;;;;;;0.10;0.10;;;;;;;;;;5034649;28;20169;-69
2021/03/16 02:45:08;;;;;;;0.10;0.10;;;;;;;;;;5034662;28;20188;-69
2021/03/16 02:47:35;;;;;;;0.10;0.10;;;;;;;;;;5052080;28;20301;-69
2021/03/16 02:50:02;;;;;;;0.40;0.40;;;;;;;;;;5034065;28;20193;-68
2021/03/16 02:52:28;;;;;;;0.15;0.15;;;;;;;;;;5034037;28;20215;-68
2021/03/16 02:54:55;;;;;;;0.10;0.10;;;;;;;;;;5052162;28;20235;-68
2021/03/16 02:57:21;;;;;;;0.10;0.10;;;;;;;;;;5060413;28;20180;-68
2021/03/16 02:59:48;;;;;;;0.10;0.10;;;;;;;;;;5074164;28;20207;-69
2021/03/16 03:02:16;;;;;;;0.10;0.10;;;;;;;;;;5088899;28;20171;-69
2021/03/16 03:04:45;;;;;;;0.10;0.10;;;;;;;;;;5072126;28;20168;-68
2021/03/16 03:07:13;;;;;;;0.10;0.10;;;;;;;;;;5071808;28;20197;-68
2021/03/16 03:09:40;;;;;;;0.10;0.10;;;;;;;;;;5071831;28;20193;-68
2021/03/16 03:12:07;;;;;;;0.10;0.10;;;;;;;;;;5053916;28;20169;-68
2021/03/16 03:14:34;;;;;;;0.20;0.20;;;;;;;;;;5053835;28;20191;-68
2021/03/16 03:17:00;;;;;;;0.10;0.10;;;;;;;;;;5071783;28;20528;-68
2021/03/16 03:19:27;;;;;;;0.10;0.10;;;;;;;;;;5053682;28;20196;-68
2021/03/16 03:21:55;;;;;;;0.25;0.25;;;;;;;;;;5071625;28;20224;-67
2021/03/16 03:24:24;;;;;;;0.10;0.10;;;;;;;;;;5071518;28;20169;-67
2021/03/16 03:27:06;;;;;;;0.10;0.10;;;;;;;;;;5071534;28;20188;-67
2021/03/16 03:29:33;;;;;;;0.10;0.10;;;;;;;;;;5071516;28;20242;-68
2021/03/16 03:32:00;;;;;;;0.10;0.10;;;;;;;;;;5071469;28;20161;-68
2021/03/16 03:34:26;;;;;;;0.10;0.10;;;;;;;;;;5082630;28;20234;-68
2021/03/16 03:36:53;;;;;;;0.10;0.10;;;;;;;;;;5090908;28;20191;-69
2021/03/16 03:39:21;;;;;;;0.10;0.10;;;;;;;;;;5091465;28;20196;-68
2021/03/16 03:41:50;;;;;;;0.10;0.10;;;;;;;;;;5073584;28;20168;-68
2021/03/16 03:44:17;;;;;;;0.30;0.30;;;;;;;;;;5090787;28;20160;-68
2021/03/16 03:46:44;;;;;;;0.47;0.47;;;;;;;;;;5090844;28;20220;-67
2021/03/16 03:49:11;;;;;;;4.47;2.92;;;;;;;;;;5072999;28;20230;-67
2021/03/16 03:51:39;;;;;;;0.13;0.13;;;;;;;;;;5091178;28;20156;-68
2021/03/16 03:54:05;;;;;;;0.20;0.20;;;;;;;;;;5090726;28;20586;-67
2021/03/16 03:56:33;;;;;;;0.10;0.10;;;;;;;;;;5090713;28;20186;-68
2021/03/16 03:59:00;;;;;;;0.10;0.10;;;;;;;;;;5090716;28;20203;-67
2021/03/16 04:01:28;;;;;;;0.10;0.10;;;;;;;;;;5072414;28;20183;-67
2021/03/16 04:03:55;;;;;;;0.10;0.10;;;;;;;;;;5055585;28;20177;-67
2021/03/16 04:06:25;;;;;;;0.10;0.10;;;;;;;;;;5070760;28;20188;-68
2021/03/16 04:08:52;;;;;;;0.10;0.10;;;;;;;;;;5070369;28;20192;-68
2021/03/16 04:11:19;;;;;;;0.20;0.20;;;;;;;;;;5070644;28;20180;-69
2021/03/16 04:13:46;;;;;;;2.80;0.63;;;;;;;;;;5070568;28;20165;-68
2021/03/16 04:16:13;;;;;;;0.10;0.10;;;;;;;;;;5070670;28;20161;-68
2021/03/16 04:18:40;;;;;;;0.13;0.13;;;;;;;;;;5070125;28;20200;-68
2021/03/16 04:21:07;;;;;;;0.10;0.10;;;;;;;;;;5070436;28;20172;-69
2021/03/16 04:23:33;;;;;;;0.30;0.30;;;;;;;;;;5070516;28;20161;-68
2021/03/16 04:26:00;;;;;;;0.50;0.50;;;;;;;;;;5070254;28;20153;-65
2021/03/16 04:28:26;;;;;;;0.30;0.30;;;;;;;;;;5070113;28;20149;-68
2021/03/16 04:30:53;;;;;;;0.10;0.10;;;;;;;;;;5070297;28;20180;-69
2021/03/16 04:33:19;;;;;;;0.10;0.10;;;;;;;;;;5070317;28;20161;-68
2021/03/16 04:35:47;;;;;;;0.85;0.85;;;;;;;;;;5070090;28;20157;-68
2021/03/16 04:38:13;;;;;;;0.10;0.10;;;;;;;;;;5069386;28;20165;-68
2021/03/16 04:40:39;;;;;;;0.10;0.10;;;;;;;;;;5069978;28;20201;-66
2021/03/16 04:43:06;;;;;;;0.10;0.10;;;;;;;;;;5069953;28;20581;-68
2021/03/16 04:45:32;;;;;;;0.10;0.10;;;;;;;;;;5069249;28;20263;-68
2021/03/16 04:47:58;;;;;;;0.17;0.17;;;;;;;;;;5069480;28;20228;-68
2021/03/16 04:50:24;;;;;;;0.10;0.10;;;;;;;;;;5069514;28;20260;-68
2021/03/16 04:52:51;;;;;;;0.10;0.10;;;;;;;;;;5069796;28;20161;-68
2021/03/16 04:55:18;;;;;;;0.10;0.10;;;;;;;;;;5069149;28;20165;-68
2021/03/16 04:57:44;;;;;;;0.10;0.10;;;;;;;;;;5063979;28;20180;-67
2021/03/16 05:00:10;;;;;;;0.10;0.10;;;;;;;;;;5070493;28;20210;-67
2021/03/16 05:02:37;;;;;;;1.13;1.10;;;;;;;;;;5075507;28;20180;-69
2021/03/16 05:05:04;;;;;;;0.10;0.10;;;;;;;;;;5069771;28;20218;-68
2021/03/16 05:07:30;;;;;;;0.10;0.10;;;;;;;;;;5069277;28;20189;-68
2021/03/16 05:09:56;;;;;;;0.10;0.10;;;;;;;;;;5051048;28;20227;-68
2021/03/16 05:12:22;;;;;;;0.15;0.15;;;;;;;;;;5051350;28;20191;-69
2021/03/16 05:14:49;;;;;;;0.10;0.10;;;;;;;;;;5051412;28;20164;-69
2021/03/16 05:17:15;;;;;;;0.10;0.10;;;;;;;;;;5068943;28;20165;-69
2021/03/16 05:19:41;;;;;;;0.30;0.30;;;;;;;;;;5051301;28;20291;-68
2021/03/16 05:22:07;;;;;;;0.10;0.10;;;;;;;;;;5068834;28;20172;-68
2021/03/16 05:24:34;;;;;;;0.10;0.10;;;;;;;;;;5069261;28;20167;-68
2021/03/16 05:27:00;;;;;;;0.35;0.35;;;;;;;;;;5068783;28;20203;-68
2021/03/16 05:29:26;;;;;;;0.10;0.10;;;;;;;;;;5069225;28;20196;-68
2021/03/16 05:31:52;;;;;;;0.10;0.10;;;;;;;;;;5068995;28;20149;-68
2021/03/16 05:34:18;;;;;;;0.10;0.10;;;;;;;;;;5069033;28;20161;-69
2021/03/16 05:36:44;;;;;;;0.10;0.10;;;;;;;;;;5069023;28;20172;-67
2021/03/16 05:39:11;;;;;;;1.00;1.00;;;;;;;;;;5068822;28;20188;-67
2021/03/16 05:41:40;;;;;;;2.28;2.17;;;;;;;;;;5068896;28;20160;-66
2021/03/16 05:44:06;;;;;;;0.10;0.10;;;;;;;;;;5068808;28;20157;-68
2021/03/16 05:46:32;;;;;;;0.55;0.55;;;;;;;;;;5068579;28;20286;-66
2021/03/16 05:49:02;;;;;;;0.10;0.10;;;;;;;;;;5068393;28;20222;-69
2021/03/16 05:51:28;;;;;;;6.60;0.93;;;;;;;;;;5068183;28;20157;-68
2021/03/16 05:53:55;;;;;;;0.25;0.25;;;;;;;;;;5050542;28;20204;-68
2021/03/16 05:56:21;;;;;;;0.10;0.10;;;;;;;;;;5068619;28;20168;-68
2021/03/16 05:58:47;;;;;;;0.10;0.10;;;;;;;;;;5050623;28;20196;-68
2021/03/16 06:01:16;;;;;;;0.10;0.10;;;;;;;;;;5049674;28;20604;-67
2021/03/16 06:03:43;;;;;;;0.20;0.20;;;;;;;;;;5048488;28;20181;-68
2021/03/16 06:06:10;;;;;;;0.10;0.10;;;;;;;;;;5048510;28;20157;-68
2021/03/16 06:08:36;;;;;;;0.10;0.10;;;;;;;;;;5050323;28;20184;-67
2021/03/16 06:11:02;;;;;;;0.10;0.10;;;;;;;;;;5052222;28;20158;-67
2021/03/16 06:13:28;;;;;;;0.08;0.08;;;;;;;;;;5052502;28;20213;-68
2021/03/16 06:15:54;;;;;;;0.17;0.17;;;;;;;;;;5052538;28;20173;-67
2021/03/16 06:18:24;;;;;;;0.10;0.10;;;;;;;;;;5052131;28;20165;-67
2021/03/16 06:21:00;;;;;;;0.10;0.10;;;;;;;;;;5051648;28;20161;-68
2021/03/16 06:23:34;;;;;;;0.10;0.10;;;;;;;;;;5051931;28;20169;-68
2021/03/16 06:26:00;;;;;;;0.52;0.52;;;;;;;;;;5034367;28;20174;-68
2021/03/16 06:28:36;;;;;;;0.20;0.20;;;;;;;;;;5052185;28;20623;-68
2021/03/16 06:31:04;;;;;;;0.20;0.20;;;;;;;;;;5034539;28;20563;-67
2021/03/16 06:33:31;;;;;;;0.13;0.13;;;;;;;;;;5052259;28;20166;-68
2021/03/16 06:36:01;;;;;;;0.70;0.60;;;;;;;;;;5034274;28;20165;-68
2021/03/16 06:38:28;;;;;;;0.10;0.10;;;;;;;;;;5051608;28;20157;-68
2021/03/16 06:40:55;;;;;;;0.45;0.45;;;;;;;;;;5034276;28;20167;-67
2021/03/16 06:43:24;;;;;;;0.10;0.10;;;;;;;;;;5034217;28;20172;-68
2021/03/16 06:45:52;;;;;;;0.10;0.10;;;;;;;;;;5052173;28;20161;-69
2021/03/16 06:48:19;;;;;;;0.20;0.20;;;;;;;;;;5072061;28;20681;-68
2021/03/16 06:50:46;;;;;;;0.28;0.28;;;;;;;;;;5072153;28;20214;-68
2021/03/16 06:53:27;;;;;;;0.00;0.00;;;;;;;;;;5053886;28;20173;-69
2021/03/16 06:55:56;;;;;;;0.30;0.30;;;;;;;;;;5071573;28;20164;-68
2021/03/16 06:58:27;;;;;;;0.10;0.10;;;;;;;;;;5071848;28;20224;-68
2021/03/16 07:01:08;;;;;;;0.73;0.73;;;;;;;;;;5071523;28;20262;-68
2021/03/16 07:03:35;;;;;;;0.20;0.20;;;;;;;;;;5076727;28;20206;-68
2021/03/16 07:06:11;;;;;;;0.10;0.10;;;;;;;;;;5087951;28;20176;-68
2021/03/16 07:08:38;;;;;;;0.10;0.10;;;;;;;;;;5069581;28;20227;-68
2021/03/16 07:11:05;;;;;;;0.10;0.10;;;;;;;;;;5073786;28;20179;-67
2021/03/16 07:13:33;;;;;;;0.10;0.10;;;;;;;;;;5091344;28;20172;-67
2021/03/16 07:16:00;;;;;;;0.22;0.22;;;;;;;;;;5072781;28;20176;-67
2021/03/16 07:18:26;;;;;;;0.30;0.30;;;;;;;;;;5091099;28;20192;-67
2021/03/16 07:20:56;;;;;;;0.10;0.10;;;;;;;;;;5091255;28;20227;-67
2021/03/16 07:23:23;;;;;;;0.68;0.68;;;;;;;;;;5091459;28;20160;-67
2021/03/16 07:25:50;;;;;;;0.10;0.10;;;;;;;;;;5091272;28;20170;-68
2021/03/16 07:28:16;;;;;;;0.17;0.17;;;;;;;;;;5073264;28;20221;-68
2021/03/16 07:30:43;;;;;;;0.00;0.00;;;;;;;;;;5073175;28;20160;-67
2021/03/16 07:33:12;;;;;;;0.05;0.05;;;;;;;;;;5072979;28;20178;-67
2021/03/16 07:35:38;;;;;;;0.32;0.32;;;;;;;;;;5073135;28;20183;-70
2021/03/16 07:38:04;;;;;;;0.38;0.38;;;;;;;;;;5073296;28;20742;-67
2021/03/16 07:40:30;;;;;;;2.25;1.08;;;;;;;;;;5091108;28;20196;-68
2021/03/16 07:42:56;;;;;;;0.00;0.00;;;;;;;;;;5073370;28;20194;-68
2021/03/16 07:45:27;;;;;;;0.10;0.10;;;;;;;;;;5073104;28;20186;-68
2021/03/16 07:47:53;;;;;;;0.10;0.10;;;;;;;;;;5090760;28;20227;-67
2021/03/16 07:50:26;;;;;;;0.10;0.10;;;;;;;;;;5072807;28;20203;-67
2021/03/16 07:52:53;;;;;;;0.20;0.20;;;;;;;;;;5090934;28;20168;-67
2021/03/16 07:55:29;;;;;;;0.00;0.00;;;;;;;;;;5072976;28;20164;-68
2021/03/16 07:58:16;;;;;;;0.00;0.00;;;;;;;;;;5090725;28;20164;-67
2021/03/16 08:00:42;;;;;;;0.00;0.00;;;;;;;;;;5072717;28;20187;-68
2021/03/16 08:03:09;;;;;;;0.00;0.00;;;;;;;;;;5062360;28;20192;-68
2021/03/16 08:05:43;;;;;;;1.25;0.20;;;;;;;;;;5070735;28;20232;-68
2021/03/16 08:08:14;;;;;;;0.10;0.10;;;;;;;;;;5071175;28;20192;-68
2021/03/16 08:10:40;;;;;;;0.52;0.52;;;;;;;;;;5090428;28;20172;-68
2021/03/16 08:13:12;;;;;;;0.10;0.10;;;;;;;;;;5090584;28;20169;-68
2021/03/16 08:15:46;;;;;;;0.00;0.00;;;;;;;;;;5072479;28;20183;-67
2021/03/16 08:18:13;;;;;;;0.10;0.10;;;;;;;;;;5090509;28;20159;-67
2021/03/16 08:20:42;;;;;;;0.10;0.10;;;;;;;;;;5072375;28;20179;-68
2021/03/16 08:23:10;;;;;;;0.00;0.00;;;;;;;;;;5090262;28;20171;-67
2021/03/16 08:25:36;;;;;;;0.00;0.00;;;;;;;;;;5072435;28;20235;-67
2021/03/16 08:28:07;;;;;;;0.10;0.10;;;;;;;;;;5072229;28;20195;-67
2021/03/16 08:30:37;;;;;;;0.10;0.10;;;;;;;;;;5089137;28;20215;-67
2021/03/16 08:33:10;;;;;;;0.10;0.10;;;;;;;;;;5089997;28;20166;-66
2021/03/16 08:35:39;;;;;;;0.10;0.10;;;;;;;;;;5089923;28;20168;-67
2021/03/16 08:38:06;;;;;;;0.20;0.20;;;;;;;;;;5075831;28;20169;-67
2021/03/16 08:40:32;;;;;;;0.80;0.45;;;;;;;;;;5069889;28;20200;-67
2021/03/16 08:43:00;;;;;;;0.20;0.20;;;;;;;;;;5069736;28;20195;-67
2021/03/16 08:45:30;;;;;;;0.10;0.10;;;;;;;;;;5069855;28;20240;-67
2021/03/16 08:47:56;;;;;;;0.00;0.00;;;;;;;;;;5069630;28;20255;-68
2021/03/16 08:50:26;;;;;;;0.10;0.10;;;;;;;;;;5069641;28;20727;-67
2021/03/16 08:52:52;;;;;;;0.10;0.10;;;;;;;;;;5051561;28;20165;-67
2021/03/16 08:55:26;;;;;;;0.10;0.10;;;;;;;;;;5051824;28;20180;-67
2021/03/16 08:57:53;;;;;;;0.08;0.08;;;;;;;;;;5069903;28;20163;-68
2021/03/16 09:00:23;;;;;;;0.10;0.10;;;;;;;;;;5051605;28;20213;-68
2021/03/16 09:02:49;;;;;;;0.10;0.10;;;;;;;;;;5061719;28;20232;-67
2021/03/16 09:05:25;;;;;;;0.22;0.22;;;;;;;;;;5031864;28;20197;-67
2021/03/16 09:07:53;;;;;;;0.10;0.10;;;;;;;;;;5049542;28;20219;-67
2021/03/16 09:10:20;;;;;;;0.00;0.00;;;;;;;;;;5034052;28;20280;-68
2021/03/16 09:12:47;;;;;;;0.00;0.00;;;;;;;;;;5029590;28;20165;-67
2021/03/16 09:15:15;;;;;;;0.00;0.00;;;;;;;;;;5029618;28;20154;-67
2021/03/16 09:17:43;;;;;;;0.00;0.00;;;;;;;;;;5011886;28;20178;-67
2021/03/16 09:20:10;;;;;;;0.10;0.10;;;;;;;;;;5029418;28;20313;-67
2021/03/16 09:22:38;;;;;;;0.10;0.10;;;;;;;;;;5011526;28;20174;-67
2021/03/16 09:25:06;;;;;;;0.10;0.10;;;;;;;;;;5011697;28;20178;-67
2021/03/16 09:27:33;;;;;;;1.27;0.80;;;;;;;;;;5011590;28;20201;-68
2021/03/16 09:29:59;;;;;;;0.00;0.00;;;;;;;;;;5028513;28;20193;-68
2021/03/16 09:32:25;;;;;;;0.10;0.10;;;;;;;;;;5029193;28;20233;-68
2021/03/16 09:34:52;;;;;;;0.00;0.00;;;;;;;;;;5029445;28;20216;-68
2021/03/16 09:37:18;;;;;;;0.00;0.00;;;;;;;;;;5029514;28;20217;-68
2021/03/16 09:40:00;;;;;;;0.10;0.10;;;;;;;;;;5043960;28;20207;-67
2021/03/16 09:42:34;;;;;;;0.03;0.03;;;;;;;;;;5048765;28;20165;-68
2021/03/16 09:45:03;;;;;;;0.10;0.10;;;;;;;;;;5048889;28;20205;-68
2021/03/16 09:47:30;;;;;;;0.08;0.08;;;;;;;;;;5062749;28;20291;-68
2021/03/16 09:50:06;;;;;;;0.10;0.10;;;;;;;;;;5068994;28;20160;-68
2021/03/16 09:52:32;;;;;;;0.00;0.00;;;;;;;;;;5050908;28;20549;-68
2021/03/16 09:54:59;;;;;;;0.00;0.00;;;;;;;;;;5068284;28;20260;-68
2021/03/16 09:57:33;;;;;;;0.10;0.10;;;;;;;;;;5051003;28;20310;-68
2021/03/16 09:59:59;;;;;;;0.00;0.00;;;;;;;;;;5068684;28;20171;-68
2021/03/16 10:02:36;;;;;;;0.00;0.00;;;;;;;;;;5046261;28;20165;-68
2021/03/16 10:05:04;;;;;;;0.10;0.10;;;;;;;;;;5048110;28;20208;-68
2021/03/16 10:07:32;;;;;;;0.00;0.00;;;;;;;;;;5048396;28;20280;-68
2021/03/16 10:10:10;;;;;;;0.10;0.10;;;;;;;;;;5073106;28;20223;-68
2021/03/16 10:12:37;;;;;;;0.20;0.20;;;;;;;;;;5088550;28;20160;-68
2021/03/16 10:15:04;;;;;;;0.10;0.10;;;;;;;;;;5070422;28;20202;-68
2021/03/16 10:17:31;;;;;;;0.00;0.00;;;;;;;;;;5088721;28;20168;-69
2021/03/16 10:20:03;;;;;;;0.10;0.10;;;;;;;;;;5070825;28;20172;-68
2021/03/16 10:22:31;;;;;;;0.00;0.00;;;;;;;;;;5070332;28;20629;-68
2021/03/16 10:24:59;;;;;;;0.10;0.10;;;;;;;;;;5070399;28;20203;-68
2021/03/16 10:27:26;;;;;;;0.10;0.10;;;;;;;;;;5088492;28;20199;-67
2021/03/16 10:29:52;;;;;;;0.10;0.10;;;;;;;;;;5070453;28;20167;-67
2021/03/16 10:32:18;;;;;;;0.10;0.10;;;;;;;;;;5088300;28;20216;-68
2021/03/16 10:34:45;;;;;;;0.05;0.05;;;;;;;;;;5088581;28;20222;-67
2021/03/16 10:37:21;;;;;;;2.25;0.35;;;;;;;;;;5088690;28;20167;-68
2021/03/16 10:39:48;;;;;;;0.10;0.10;;;;;;;;;;5058533;28;20205;-70
2021/03/16 10:42:14;;;;;;;0.10;0.10;;;;;;;;;;5052091;28;20234;-70
2021/03/16 10:44:41;;;;;;;0.10;0.10;;;;;;;;;;5068415;28;20169;-70
2021/03/16 10:47:07;;;;;;;0.10;0.10;;;;;;;;;;5049805;28;20232;-67
2021/03/16 10:49:34;;;;;;;0.00;0.00;;;;;;;;;;5062245;28;20208;-67
2021/03/16 10:52:01;;;;;;;0.10;0.10;;;;;;;;;;5068046;28;20204;-68
2021/03/16 10:54:27;;;;;;;0.10;0.10;;;;;;;;;;5041434;28;20215;-67
2021/03/16 10:56:54;;;;;;;0.10;0.10;;;;;;;;;;5051922;28;20217;-67
2021/03/16 10:59:23;;;;;;;0.20;0.20;;;;;;;;;;5051643;28;20157;-67
2021/03/16 11:01:50;;;;;;;0.10;0.10;;;;;;;;;;5051265;28;20193;-70
2021/03/16 11:04:20;;;;;;;0.10;0.10;;;;;;;;;;5071047;28;20318;-69
2021/03/16 11:06:46;;;;;;;0.15;0.15;;;;;;;;;;5071474;28;20274;-69
2021/03/16 11:09:13;;;;;;;0.10;0.10;;;;;;;;;;5053678;28;20637;-68
2021/03/16 11:11:39;;;;;;;0.10;0.10;;;;;;;;;;5052466;28;20192;-69
2021/03/16 11:14:05;;;;;;;0.10;0.10;;;;;;;;;;5070727;28;20212;-69
2021/03/16 11:16:32;;;;;;;0.10;0.10;;;;;;;;;;5070646;28;20569;-68
2021/03/16 11:18:58;;;;;;;0.10;0.10;;;;;;;;;;5070586;28;20171;-68
2021/03/16 11:21:25;;;;;;;0.10;0.10;;;;;;;;;;5070510;28;20192;-69
2021/03/16 11:23:52;;;;;;;0.00;0.00;;;;;;;;;;5070609;28;20176;-68
2021/03/16 11:26:18;;;;;;;0.00;0.00;;;;;;;;;;5071066;28;20157;-69
2021/03/16 11:28:45;;;;;;;0.40;0.40;;;;;;;;;;5071525;28;20165;-68
2021/03/16 11:31:11;;;;;;;0.10;0.10;;;;;;;;;;5053169;28;20625;-68
2021/03/16 11:33:38;;;;;;;0.10;0.10;;;;;;;;;;5071045;28;20161;-66
2021/03/16 11:36:04;;;;;;;0.10;0.10;;;;;;;;;;5071348;28;20168;-68
2021/03/16 11:38:30;;;;;;;0.00;0.00;;;;;;;;;;5049395;28;20556;-68
2021/03/16 11:40:56;;;;;;;0.10;0.10;;;;;;;;;;5086867;28;20176;-67
2021/03/16 11:43:23;;;;;;;0.00;0.00;;;;;;;;;;5090658;28;20190;-67
2021/03/16 11:45:49;;;;;;;0.77;0.50;;;;;;;;;;5090917;28;20160;-69
2021/03/16 11:48:15;;;;;;;0.55;0.55;;;;;;;;;;5072611;28;20271;-68
2021/03/16 11:50:42;;;;;;;0.10;0.10;;;;;;;;;;5083807;28;20228;-67
2021/03/16 11:53:08;;;;;;;0.10;0.10;;;;;;;;;;5069585;28;20227;-67
2021/03/16 11:55:34;;;;;;;0.00;0.00;;;;;;;;;;5070755;28;20169;-67
2021/03/16 11:58:01;;;;;;;0.57;0.57;;;;;;;;;;5052403;28;20199;-68
2021/03/16 12:00:28;;;;;;;0.15;0.15;;;;;;;;;;5070685;28;20161;-68
2021/03/16 12:02:54;;;;;;;0.10;0.10;;;;;;;;;;5069691;28;20203;-67
2021/03/16 12:05:20;;;;;;;0.10;0.10;;;;;;;;;;5070501;28;20165;-67
2021/03/16 12:07:47;;;;;;;0.10;0.10;;;;;;;;;;5052063;28;20200;-67
2021/03/16 12:10:13;;;;;;;0.10;0.10;;;;;;;;;;5070073;28;20161;-67
2021/03/16 12:12:39;;;;;;;0.00;0.00;;;;;;;;;;5069911;28;20192;-67
2021/03/16 12:15:08;;;;;;;0.03;0.03;;;;;;;;;;5070272;28;20161;-67
2021/03/16 12:17:34;;;;;;;0.10;0.10;;;;;;;;;;5052139;28;20169;-67
2021/03/16 12:20:00;;;;;;;0.10;0.10;;;;;;;;;;5070258;28;20225;-67
2021/03/16 12:22:26;;;;;;;0.10;0.10;;;;;;;;;;5051826;28;20196;-67
2021/03/16 12:24:53;;;;;;;0.10;0.10;;;;;;;;;;5047762;28;20184;-67
2021/03/16 12:27:19;;;;;;;0.10;0.10;;;;;;;;;;5064825;28;20701;-68
2021/03/16 12:29:45;;;;;;;0.10;0.10;;;;;;;;;;5069561;28;20188;-68
2021/03/16 12:32:11;;;;;;;0.10;0.10;;;;;;;;;;5069519;28;20192;-67
2021/03/16 12:34:37;;;;;;;0.00;0.00;;;;;;;;;;5069982;28;20185;-67
2021/03/16 12:37:04;;;;;;;0.10;0.10;;;;;;;;;;5051417;28;20219;-67
2021/03/16 12:39:31;;;;;;;0.10;0.10;;;;;;;;;;5071270;28;20661;-67
2021/03/16 12:41:57;;;;;;;0.10;0.10;;;;;;;;;;5051642;28;20169;-67
2021/03/16 12:44:23;;;;;;;0.10;0.10;;;;;;;;;;5051572;28;20636;-67
2021/03/16 12:46:50;;;;;;;0.10;0.10;;;;;;;;;;5069159;28;20581;-67
2021/03/16 12:49:16;;;;;;;0.20;0.20;;;;;;;;;;5069278;28;20173;-67
2021/03/16 12:51:42;;;;;;;0.10;0.10;;;;;;;;;;5051477;28;20197;-68
2021/03/16 12:54:08;;;;;;;0.10;0.10;;;;;;;;;;5051736;28;20168;-67
2021/03/16 12:56:35;;;;;;;0.00;0.00;;;;;;;;;;5069612;28;20168;-67
2021/03/16 12:59:01;;;;;;;0.10;0.10;;;;;;;;;;5069577;28;20168;-67
2021/03/16 13:01:28;;;;;;;0.10;0.10;;;;;;;;;;5069361;28;20192;-68
2021/03/16 13:03:54;;;;;;;0.10;0.10;;;;;;;;;;5052795;28;20253;-68
2021/03/16 13:06:20;;;;;;;0.10;0.10;;;;;;;;;;5049310;28;20166;-68
2021/03/16 13:08:47;;;;;;;0.10;0.10;;;;;;;;;;5049151;28;20157;-67
2021/03/16 13:11:13;;;;;;;1.95;0.65;;;;;;;;;;5048764;28;20193;-67
2021/03/16 13:13:39;;;;;;;0.10;0.10;;;;;;;;;;5048909;28;20169;-67
2021/03/16 13:16:05;;;;;;;0.00;0.00;;;;;;;;;;5049319;28;20272;-67
2021/03/16 13:18:31;;;;;;;0.10;0.10;;;;;;;;;;5048287;28;20229;-67
2021/03/16 13:20:58;;;;;;;0.00;0.00;;;;;;;;;;5049054;28;20614;-67
2021/03/16 13:23:24;;;;;;;0.10;0.10;;;;;;;;;;5030973;28;20203;-67
2021/03/16 13:25:50;;;;;;;0.10;0.10;;;;;;;;;;5048831;28;20221;-66
2021/03/16 13:28:16;;;;;;;0.10;0.10;;;;;;;;;;5030962;28;20197;-67
2021/03/16 13:30:42;;;;;;;0.10;0.10;;;;;;;;;;5048703;28;20175;-67
2021/03/16 13:33:09;;;;;;;0.10;0.10;;;;;;;;;;5048992;28;20211;-67
2021/03/16 13:35:35;;;;;;;0.00;0.00;;;;;;;;;;5030945;28;20196;-67
2021/03/16 13:38:01;;;;;;;0.10;0.10;;;;;;;;;;5033031;28;20177;-66
2021/03/16 13:40:27;;;;;;;0.10;0.10;;;;;;;;;;5076396;28;20573;-67
2021/03/16 13:42:53;;;;;;;0.10;0.10;;;;;;;;;;5088378;28;20226;-67
2021/03/16 13:45:20;;;;;;;0.10;0.10;;;;;;;;;;5088912;28;20168;-66
2021/03/16 13:47:46;;;;;;;0.10;0.10;;;;;;;;;;5088603;28;20238;-67
2021/03/16 13:50:13;;;;;;;0.10;0.10;;;;;;;;;;5088898;28;20156;-67
2021/03/16 13:52:40;;;;;;;0.10;0.10;;;;;;;;;;5088418;28;20241;-67
2021/03/16 13:55:06;;;;;;;1.48;1.38;;;;;;;;;;5070461;28;20472;-67
2021/03/16 13:57:33;;;;;;;0.10;0.10;;;;;;;;;;5088890;28;20164;-67
2021/03/16 13:59:59;;;;;;;0.05;0.05;;;;;;;;;;5088665;28;20160;-67
2021/03/16 14:02:25;;;;;;;0.10;0.10;;;;;;;;;;5084033;28;20227;-67
2021/03/16 14:04:51;;;;;;;0.10;0.10;;;;;;;;;;5068544;28;20165;-67
2021/03/16 14:07:17;;;;;;;0.10;0.10;;;;;;;;;;5050593;28;20219;-67
2021/03/16 14:09:44;;;;;;;0.30;0.30;;;;;;;;;;5067039;28;20181;-67
2021/03/16 14:12:10;;;;;;;0.00;0.00;;;;;;;;;;5050272;28;20227;-67
2021/03/16 14:14:36;;;;;;;0.10;0.10;;;;;;;;;;5068243;28;20590;-67
2021/03/16 14:17:02;;;;;;;0.45;0.40;;;;;;;;;;5068352;28;20173;-67
2021/03/16 14:19:29;;;;;;;0.10;0.10;;;;;;;;;;5068400;28;20161;-67
2021/03/16 14:21:55;;;;;;;1.75;0.98;;;;;;;;;;5050475;28;20669;-68
2021/03/16 14:24:21;;;;;;;0.10;0.10;;;;;;;;;;5068156;28;20239;-67
2021/03/16 14:26:47;;;;;;;0.10;0.10;;;;;;;;;;5067950;28;20192;-68
2021/03/16 14:29:13;;;;;;;0.10;0.10;;;;;;;;;;5069150;28;20160;-69
2021/03/16 14:31:39;;;;;;;0.10;0.10;;;;;;;;;;5054037;28;20220;-69
2021/03/16 14:34:06;;;;;;;0.10;0.10;;;;;;;;;;5072061;28;20183;-69
2021/03/16 14:36:33;;;;;;;0.10;0.10;;;;;;;;;;5053926;28;20232;-69
2021/03/16 14:38:59;;;;;;;0.15;0.15;;;;;;;;;;5073782;28;20216;-69
2021/03/16 14:41:26;;;;;;;0.10;0.10;;;;;;;;;;5074124;28;20192;-69
2021/03/16 14:43:52;;;;;;;0.00;0.00;;;;;;;;;;5091898;28;20164;-70